createdAt,value
2017-11-03T00:00:52.535Z,26.90
2017-11-03T00:03:20.538Z,27.10
2017-11-03T00:05:49.404Z,26.50
2017-11-03T00:08:17.884Z,27.80
2017-11-03T00:10:46.627Z,27.87
2017-11-03T00:13:15.312Z,26.17
2017-11-03T00:15:43.777Z,28.27
2017-11-03T00:18:12.519Z,26.43
2017-11-03T00:20:40.676Z,27.47
2017-11-03T00:23:09.329Z,27.63
2017-11-03T00:25:38.630Z,25.50
2017-11-03T00:28:07.312Z,24.73
2017-11-03T00:30:36.655Z,25.90
2017-11-03T00:33:04.862Z,25.30
2017-11-03T00:35:32.968Z,28.67
2017-11-03T00:38:02.236Z,25.97
2017-11-03T00:40:30.836Z,27.07
2017-11-03T00:43:00.259Z,25.60
2017-11-03T00:45:29.046Z,28.50
2017-11-03T00:47:57.830Z,28.57
2017-11-03T00:50:26.688Z,27.23
2017-11-03T00:52:55.353Z,27.37
2017-11-03T00:55:23.382Z,27.43
2017-11-03T00:57:52.791Z,26.27
2017-11-03T01:00:22.132Z,25.50
2017-11-03T01:02:50.136Z,26.10
2017-11-03T01:05:18.302Z,25.33
2017-11-03T01:07:46.907Z,27.73
2017-11-03T01:10:15.646Z,28.53
2017-11-03T01:12:44.436Z,27.47
2017-11-03T01:15:12.506Z,26.90
2017-11-03T01:17:41.222Z,27.77
2017-11-03T01:20:09.361Z,28.73
2017-11-03T01:22:37.938Z,26.40
2017-11-03T01:25:06.650Z,26.00
2017-11-03T01:27:35.279Z,26.00
2017-11-03T01:30:03.878Z,25.40
2017-11-03T01:32:33.123Z,26.20
2017-11-03T01:35:01.301Z,26.93
2017-11-03T01:37:29.292Z,28.37
2017-11-03T01:39:57.986Z,27.20
2017-11-03T01:42:26.536Z,28.10
2017-11-03T01:44:54.968Z,27.50
2017-11-03T01:47:23.754Z,27.50
2017-11-03T01:49:51.941Z,27.40
2017-11-03T01:52:20.934Z,29.80
2017-11-03T01:54:50.091Z,28.73
2017-11-03T01:57:18.927Z,29.37
2017-11-03T01:59:47.763Z,30.10
2017-11-03T02:02:16.345Z,28.10
2017-11-03T02:04:44.488Z,27.70
2017-11-03T02:07:12.503Z,29.50
2017-11-03T02:09:41.104Z,28.30
2017-11-03T02:12:10.045Z,30.00
2017-11-03T02:14:38.828Z,27.77
2017-11-03T02:17:07.243Z,28.53
2017-11-03T02:19:35.986Z,27.57
2017-11-03T02:22:05.439Z,29.80
2017-11-03T02:24:34.044Z,28.40
2017-11-03T02:27:02.898Z,29.03
2017-11-03T02:29:31.036Z,29.60
2017-11-03T02:32:00.312Z,28.50
2017-11-03T02:34:29.051Z,28.90
2017-11-03T02:36:57.130Z,29.07
2017-11-03T02:39:25.155Z,30.20
2017-11-03T02:41:53.496Z,29.20
2017-11-03T02:44:21.527Z,29.70
2017-11-03T02:46:50.260Z,28.10
2017-11-03T02:49:19.179Z,29.37
2017-11-03T02:51:47.167Z,27.50
2017-11-03T02:54:15.924Z,28.03
2017-11-03T02:56:44.702Z,28.43
2017-11-03T02:59:12.692Z,28.80
2017-11-03T03:01:40.742Z,29.73
2017-11-03T03:04:09.610Z,29.07
2017-11-03T03:06:37.615Z,31.43
2017-11-03T03:09:05.722Z,28.40
2017-11-03T03:11:34.306Z,31.33
2017-11-03T03:14:02.799Z,30.23
2017-11-03T03:16:31.622Z,29.83
2017-11-03T03:19:00.524Z,29.67
2017-11-03T03:21:28.588Z,29.80
2017-11-03T03:23:56.626Z,28.63
2017-11-03T03:26:25.663Z,28.20
2017-11-03T03:28:54.214Z,28.20
2017-11-03T03:31:23.511Z,27.40
2017-11-03T03:33:53.136Z,28.60
2017-11-03T03:36:21.147Z,26.50
2017-11-03T03:38:49.179Z,27.20
2017-11-03T03:41:17.512Z,25.50
2017-11-03T03:43:46.143Z,27.10
2017-11-03T03:46:14.676Z,25.23
2017-11-03T03:48:43.575Z,25.60
2017-11-03T03:51:11.580Z,27.10
2017-11-03T03:53:40.380Z,26.90
2017-11-03T03:56:08.769Z,27.17
2017-11-03T03:58:37.355Z,25.67
2017-11-03T04:01:05.671Z,26.10
2017-11-03T04:03:34.406Z,24.43
2017-11-03T04:06:03.600Z,25.37
2017-11-03T04:08:32.402Z,25.37
2017-11-03T04:11:00.812Z,25.77
2017-11-03T04:13:29.454Z,24.90
2017-11-03T04:15:58.249Z,25.50
2017-11-03T04:18:27.589Z,25.60
2017-11-03T04:20:56.356Z,25.77
2017-11-03T04:23:24.476Z,26.20
2017-11-03T04:25:52.864Z,23.00
2017-11-03T04:28:22.942Z,24.13
2017-11-03T04:30:51.494Z,24.60
2017-11-03T04:33:20.547Z,24.57
2017-11-03T04:35:49.082Z,26.03
2017-11-03T04:38:18.445Z,24.37
2017-11-03T04:40:46.620Z,24.00
2017-11-03T04:43:14.678Z,23.07
2017-11-03T04:45:43.743Z,20.33
2017-11-03T04:48:12.486Z,21.50
2017-11-03T04:50:41.343Z,20.70
2017-11-03T04:53:09.441Z,22.50
2017-11-03T04:55:37.798Z,19.57
2017-11-03T04:58:06.239Z,21.47
2017-11-03T05:00:34.976Z,21.67
2017-11-03T05:03:03.727Z,20.67
2017-11-03T05:05:32.653Z,21.97
2017-11-03T05:08:00.698Z,18.40
2017-11-03T05:10:28.824Z,21.40
2017-11-03T05:12:57.439Z,21.20
2017-11-03T05:15:26.742Z,21.07
2017-11-03T05:17:56.235Z,20.00
2017-11-03T05:20:25.700Z,20.07
2017-11-03T05:22:54.189Z,21.07
2017-11-03T05:25:22.342Z,19.83
2017-11-03T05:27:50.352Z,19.30
2017-11-03T05:30:18.857Z,19.17
2017-11-03T05:32:47.782Z,19.13
2017-11-03T05:35:16.763Z,18.60
2017-11-03T05:37:44.816Z,19.20
2017-11-03T05:40:13.731Z,20.13
2017-11-03T05:42:41.852Z,18.67
2017-11-03T05:45:09.938Z,19.60
2017-11-03T05:47:38.882Z,19.83
2017-11-03T05:50:07.688Z,18.87
2017-11-03T05:52:36.199Z,18.53
2017-11-03T05:55:04.592Z,20.30
2017-11-03T05:57:32.758Z,17.80
2017-11-03T06:00:01.388Z,19.30
2017-11-03T06:02:30.587Z,18.10
2017-11-03T06:04:59.316Z,18.83
2017-11-03T06:07:28.065Z,19.57
2017-11-03T06:09:56.187Z,18.33
2017-11-03T06:12:24.262Z,17.30
2017-11-03T06:14:52.267Z,18.43
2017-11-03T06:17:21.894Z,20.13
2017-11-03T06:19:50.620Z,20.00
2017-11-03T06:22:18.666Z,17.50
2017-11-03T06:24:46.779Z,17.23
2017-11-03T06:27:14.824Z,18.57
2017-11-03T06:29:42.858Z,16.90
2017-11-03T06:32:11.823Z,17.77
2017-11-03T06:34:40.449Z,17.57
2017-11-03T06:37:09.179Z,17.07
2017-11-03T06:39:37.375Z,16.50
2017-11-03T06:42:05.410Z,15.27
2017-11-03T06:44:33.415Z,15.83
2017-11-03T06:47:02.083Z,17.00
2017-11-03T06:49:30.159Z,17.90
2017-11-03T06:51:58.643Z,16.40
2017-11-03T06:54:27.562Z,15.07
2017-11-03T06:56:56.378Z,16.40
2017-11-03T06:59:24.422Z,15.47
2017-11-03T07:01:53.866Z,15.80
2017-11-03T07:04:22.967Z,15.70
2017-11-03T07:06:51.540Z,16.20
2017-11-03T07:09:20.516Z,14.80
2017-11-03T07:11:49.466Z,15.73
2017-11-03T07:14:17.491Z,14.00
2017-11-03T07:16:46.860Z,15.13
2017-11-03T07:19:15.491Z,14.80
2017-11-03T07:21:43.812Z,13.73
2017-11-03T07:24:12.542Z,15.07
2017-11-03T07:26:41.843Z,14.53
2017-11-03T07:29:10.580Z,13.37
2017-11-03T07:31:38.757Z,13.60
2017-11-03T07:34:07.296Z,14.93
2017-11-03T07:36:36.494Z,14.17
2017-11-03T07:39:06.259Z,15.33
2017-11-03T07:41:34.264Z,13.57
2017-11-03T07:44:03.016Z,14.23
2017-11-03T07:46:31.012Z,13.67
2017-11-03T07:48:59.618Z,13.93
2017-11-03T07:51:28.923Z,13.77
2017-11-03T07:53:57.656Z,14.07
2017-11-03T07:56:25.691Z,14.20
2017-11-03T07:58:53.686Z,13.70
2017-11-03T08:01:21.739Z,13.20
2017-11-03T08:03:50.503Z,14.03
2017-11-03T08:06:19.825Z,14.70
2017-11-03T08:08:49.122Z,13.97
2017-11-03T08:11:18.255Z,14.13
2017-11-03T08:13:46.259Z,14.13
2017-11-03T08:16:14.302Z,12.90
2017-11-03T08:18:43.075Z,11.90
2017-11-03T08:21:11.122Z,12.87
2017-11-03T08:23:39.907Z,12.60
2017-11-03T08:26:08.656Z,11.43
2017-11-03T08:28:36.655Z,11.43
2017-11-03T08:31:05.446Z,12.27
2017-11-03T08:33:34.191Z,15.60
2017-11-03T08:36:02.878Z,12.10
2017-11-03T19:39:42.560Z,27.10
2017-11-03T19:42:11.811Z,27.57
2017-11-03T19:44:40.547Z,27.17
2017-11-03T19:47:09.491Z,27.63
2017-11-03T19:49:37.630Z,27.33
2017-11-03T19:52:06.194Z,28.30
2017-11-03T19:54:35.831Z,25.73
2017-11-03T19:57:04.179Z,29.10
2017-11-03T19:59:32.921Z,28.23
2017-11-03T20:02:01.078Z,26.73
2017-11-03T20:04:29.064Z,28.67
2017-11-03T20:06:57.538Z,27.67
2017-11-03T20:09:26.278Z,27.37
2017-11-03T20:11:55.982Z,27.30
2017-11-03T20:14:24.012Z,29.97
2017-11-03T20:16:52.166Z,27.13
2017-11-03T20:19:20.188Z,26.30
2017-11-03T20:21:49.086Z,27.40
2017-11-03T20:24:17.247Z,27.93
2017-11-03T20:26:45.304Z,28.33
2017-11-03T20:29:13.357Z,28.23
2017-11-03T20:31:41.480Z,28.90
2017-11-03T20:34:09.488Z,27.87
2017-11-03T20:36:38.999Z,26.30
2017-11-03T20:39:07.774Z,27.30
2017-11-03T20:41:37.178Z,27.03
2017-11-03T20:44:06.525Z,29.40
2017-11-03T20:46:34.719Z,27.23
2017-11-03T20:49:02.731Z,28.60
2017-11-03T20:51:31.514Z,27.47
2017-11-03T20:54:00.788Z,28.20
2017-11-03T20:56:29.379Z,28.57
2017-11-03T20:58:57.392Z,27.50
2017-11-03T21:01:26.002Z,28.60
2017-11-03T21:03:54.619Z,28.97
2017-11-03T21:06:22.682Z,28.07
2017-11-03T21:08:51.422Z,28.00
2017-11-03T21:11:20.222Z,29.63
2017-11-03T21:13:48.631Z,29.53
2017-11-03T21:16:17.362Z,28.17
2017-11-03T21:18:46.142Z,29.97
2017-11-03T21:21:14.926Z,28.23
2017-11-03T21:23:44.323Z,29.60
2017-11-03T21:26:12.823Z,27.97
2017-11-03T21:28:41.629Z,28.60
2017-11-03T21:31:10.222Z,29.37
2017-11-03T21:33:38.245Z,29.23
2017-11-03T21:36:06.345Z,28.87
2017-11-03T21:38:35.767Z,28.57
2017-11-03T21:41:04.308Z,28.50
2017-11-03T21:43:32.919Z,29.57
2017-11-03T21:46:02.400Z,29.60
2017-11-03T21:48:30.454Z,29.50
2017-11-03T21:50:58.456Z,29.67
2017-11-03T21:53:26.615Z,28.10
2017-11-03T21:55:55.204Z,29.27
2017-11-03T21:58:24.002Z,29.03
2017-11-03T22:00:52.946Z,28.03
2017-11-03T22:03:20.979Z,29.40
2017-11-03T22:05:49.716Z,30.33
2017-11-03T22:08:18.594Z,29.77
2017-11-03T22:10:47.943Z,30.03
2017-11-03T22:13:16.448Z,30.50
2017-11-03T22:15:45.827Z,30.40
2017-11-03T22:18:14.566Z,29.17
2017-11-03T22:20:42.564Z,29.33
2017-11-03T22:23:10.696Z,29.90
2017-11-03T22:25:40.114Z,29.20
2017-11-03T22:28:08.810Z,28.13
2017-11-03T22:30:37.348Z,29.43
2017-11-03T22:33:05.348Z,32.00
2017-11-03T22:35:33.387Z,31.07
2017-11-03T22:38:01.542Z,29.40
2017-11-03T22:40:29.971Z,32.10
2017-11-03T22:42:59.115Z,31.70
2017-11-03T22:45:27.382Z,31.40
2017-11-03T22:47:55.423Z,32.43
2017-11-03T22:50:24.163Z,32.37
2017-11-03T22:52:52.322Z,33.70
2017-11-03T22:55:20.863Z,32.97
2017-11-03T22:57:50.120Z,31.47
2017-11-03T23:00:18.260Z,32.60
2017-11-03T23:02:46.264Z,32.17
2017-11-03T23:05:14.326Z,30.47
2017-11-03T23:07:42.439Z,33.03
2017-11-03T23:10:11.084Z,29.87
2017-11-03T23:12:39.668Z,30.60
2017-11-03T23:15:08.485Z,28.93
2017-11-03T23:17:36.987Z,30.50
2017-11-03T23:20:05.736Z,32.87
2017-11-03T23:22:33.847Z,32.00
2017-11-03T23:25:03.110Z,32.40
2017-11-03T23:27:31.813Z,32.90
2017-11-03T23:30:00.352Z,32.27
2017-11-03T23:32:28.862Z,33.30
2017-11-03T23:34:57.523Z,32.23
2017-11-03T23:37:25.644Z,29.70
2017-11-03T23:39:53.692Z,31.20
2017-11-03T23:42:22.234Z,29.97
2017-11-03T23:44:51.799Z,30.03
2017-11-03T23:47:20.764Z,29.53
2017-11-03T23:49:49.562Z,29.63
2017-11-03T23:52:17.727Z,29.67
2017-11-03T23:54:45.739Z,32.20
2017-11-03T23:57:14.358Z,29.37
2017-11-03T23:59:43.644Z,32.00
